Clearfield, Iowa
Current Conditions -  °F | °C
As of 9:15 AM on Friday 19 Dec 2014 (Local Time) from KCSQ Reporting Station
Haze Haze  
Wind Chill: -6°   Ceiling: 500
Heat Index: -2°   Visibility: 5mi
Dew Point: -2°   Wind: 7mph
Humidity: 100%   Direction: 150°SSE
Pressure: 30.26"   Gusts: NA
Location:  40.8°N, 94.48°W
Report Text: KCSQ 191515Z AUTO 15006KT 5SM BR OVC005 M02/M02 A3026 RMK AO2
Loading
Personal Weather Stations






























Interactive Weather Map New forecast layout! Learn more

10-Day Weather Forecast

Advertisements
Track Severe Weather on mobile